createdAt,value
2018-03-18T00:01:22.478Z,92.30
2018-03-18T00:03:49.503Z,92.30
2018-03-18T00:06:15.756Z,92.30
2018-03-18T00:08:42.358Z,91.90
2018-03-18T00:11:08.586Z,91.90
2018-03-18T00:13:34.814Z,91.80
2018-03-18T00:16:01.766Z,92.00
2018-03-18T00:18:28.760Z,91.90
2018-03-18T00:20:54.972Z,91.90
2018-03-18T00:23:23.604Z,91.90
2018-03-18T00:25:49.880Z,91.90
2018-03-18T00:28:16.088Z,91.90
2018-03-18T00:30:42.341Z,91.80
2018-03-18T00:33:08.539Z,91.70
2018-03-18T00:35:34.796Z,91.70
2018-03-18T00:38:01.024Z,91.70
2018-03-18T00:40:27.266Z,91.80
2018-03-18T00:42:53.475Z,91.70
2018-03-18T00:45:20.418Z,91.90
2018-03-18T00:47:46.632Z,91.90
2018-03-18T00:50:13.592Z,91.80
2018-03-18T00:52:39.847Z,91.80
2018-03-18T00:55:06.062Z,91.90
2018-03-18T00:57:32.304Z,91.90
2018-03-18T00:59:58.508Z,92.20
2018-03-18T01:02:24.740Z,92.00
2018-03-18T01:04:51.753Z,92.00
2018-03-18T01:07:17.959Z,92.00
2018-03-18T01:09:44.186Z,91.90
2018-03-18T01:12:10.444Z,91.40
2018-03-18T01:14:36.676Z,91.40
2018-03-18T01:17:02.902Z,91.40
2018-03-18T01:19:29.869Z,91.30
2018-03-18T01:21:56.080Z,91.30
2018-03-18T01:24:22.329Z,91.30
2018-03-18T01:26:49.351Z,91.30
2018-03-18T01:29:15.605Z,91.30
2018-03-18T01:31:41.858Z,91.30
2018-03-18T01:34:08.092Z,91.20
2018-03-18T01:36:34.324Z,91.30
2018-03-18T01:39:00.559Z,91.30
2018-03-18T01:41:26.780Z,91.30
2018-03-18T01:43:52.984Z,91.30
2018-03-18T01:46:19.969Z,91.30
2018-03-18T01:48:46.203Z,91.30
2018-03-18T01:51:12.411Z,91.40
2018-03-18T01:53:38.630Z,91.40
2018-03-18T01:56:04.857Z,91.40
2018-03-18T01:58:31.069Z,91.10
2018-03-18T02:00:57.285Z,91.00
2018-03-18T02:03:24.236Z,91.00
2018-03-18T02:05:51.269Z,91.10
2018-03-18T02:08:17.466Z,91.10
2018-03-18T02:10:43.694Z,91.10
2018-03-18T02:13:09.924Z,91.00
2018-03-18T02:15:36.188Z,91.10
2018-03-18T02:18:02.422Z,91.10
2018-03-18T02:20:28.638Z,91.00
2018-03-18T02:22:55.623Z,91.10
2018-03-18T02:25:22.504Z,91.10
2018-03-18T02:27:48.716Z,91.00
2018-03-18T02:30:14.940Z,91.10
2018-03-18T02:32:41.885Z,90.90
2018-03-18T02:35:08.863Z,90.90
2018-03-18T02:37:35.075Z,91.00
2018-03-18T02:40:02.053Z,91.10
2018-03-18T02:42:28.281Z,90.90
2018-03-18T02:44:55.250Z,90.80
2018-03-18T02:47:21.493Z,90.80
2018-03-18T02:49:48.433Z,90.70
2018-03-18T02:52:15.391Z,90.60
2018-03-18T02:54:42.369Z,90.70
2018-03-18T02:57:08.560Z,90.70
2018-03-18T02:59:34.776Z,90.70
2018-03-18T03:02:01.038Z,90.60
2018-03-18T03:04:27.798Z,90.60
2018-03-18T03:06:55.288Z,90.60
2018-03-18T03:09:21.659Z,90.70
2018-03-18T03:11:47.872Z,90.80
2018-03-18T03:14:14.087Z,90.60
2018-03-18T03:16:40.352Z,90.80
2018-03-18T03:19:06.574Z,90.50
2018-03-18T03:21:32.814Z,90.70
2018-03-18T03:23:59.020Z,90.60
2018-03-18T03:26:25.228Z,90.50
2018-03-18T03:28:52.206Z,90.40
2018-03-18T03:31:18.437Z,90.40
2018-03-18T03:33:44.700Z,90.30
2018-03-18T03:36:10.913Z,90.20
2018-03-18T03:38:37.884Z,90.30
2018-03-18T03:41:04.106Z,90.30
2018-03-18T03:43:31.048Z,90.30
2018-03-18T03:45:57.294Z,90.30
2018-03-18T03:48:24.251Z,90.20
2018-03-18T03:50:51.216Z,90.20
2018-03-18T03:53:18.178Z,90.10
2018-03-18T03:55:45.152Z,90.10
2018-03-18T03:58:11.357Z,90.10
2018-03-18T04:00:38.355Z,90.80
2018-03-18T04:03:04.590Z,90.50
2018-03-18T04:05:30.864Z,90.20
2018-03-18T04:07:57.112Z,90.20
2018-03-18T04:10:23.322Z,90.10
2018-03-18T04:12:49.535Z,90.10
2018-03-18T04:15:16.506Z,90.10
2018-03-18T04:17:42.723Z,90.00
2018-03-18T04:20:09.700Z,90.10
2018-03-18T04:22:35.915Z,90.10
2018-03-18T04:25:02.473Z,90.00
2018-03-18T04:27:29.426Z,90.10
2018-03-18T04:29:56.383Z,90.20
2018-03-18T04:32:23.353Z,90.30
2018-03-18T04:34:50.295Z,90.20
2018-03-18T04:37:17.281Z,90.10
2018-03-18T04:39:43.517Z,90.10
2018-03-18T04:42:09.745Z,90.10
2018-03-18T04:44:36.704Z,90.20
2018-03-18T04:47:03.670Z,90.30
2018-03-18T04:49:29.881Z,90.30
2018-03-18T04:51:56.137Z,90.40
2018-03-18T04:54:22.349Z,90.50
2018-03-18T04:56:48.573Z,90.40
2018-03-18T04:59:14.815Z,90.50
2018-03-18T05:01:41.027Z,90.50
2018-03-18T05:04:07.249Z,90.80
2018-03-18T05:06:33.523Z,90.80
2018-03-18T05:09:00.012Z,90.70
2018-03-18T05:11:26.207Z,90.90
2018-03-18T05:13:52.427Z,91.20
2018-03-18T05:16:18.679Z,90.60
2018-03-18T05:18:44.889Z,90.60
2018-03-18T05:21:11.858Z,90.80
2018-03-18T05:23:38.051Z,90.80
2018-03-18T05:26:04.295Z,90.90
2018-03-18T05:28:30.507Z,90.80
2018-03-18T05:30:57.087Z,90.70
2018-03-18T05:33:23.302Z,90.60
2018-03-18T05:35:49.527Z,90.70
2018-03-18T05:38:15.786Z,90.80
2018-03-18T05:40:41.994Z,90.80
2018-03-18T05:43:08.210Z,90.60
2018-03-18T05:45:35.158Z,90.40
2018-03-18T05:48:02.158Z,90.30
2018-03-18T05:50:28.373Z,90.30
2018-03-18T05:52:55.614Z,94.20
2018-03-18T05:55:21.838Z,94.20
2018-03-18T05:57:48.076Z,92.90
2018-03-18T06:00:14.304Z,90.70
2018-03-18T06:02:40.537Z,90.10
2018-03-18T06:05:06.789Z,88.80
2018-03-18T06:07:33.025Z,88.20
2018-03-18T06:09:59.259Z,89.00
2018-03-18T06:12:25.469Z,87.60
2018-03-18T06:14:51.702Z,84.40
2018-03-18T06:17:18.664Z,83.90
2018-03-18T06:19:44.921Z,83.80
2018-03-18T06:22:11.162Z,84.00
2018-03-18T06:24:37.764Z,84.60
2018-03-18T06:27:04.187Z,84.90
2018-03-18T06:29:30.405Z,85.10
2018-03-18T06:31:56.641Z,85.50
2018-03-18T06:34:22.893Z,86.00
2018-03-18T06:36:49.129Z,86.40
2018-03-18T06:39:15.351Z,85.90
2018-03-18T06:41:41.583Z,85.90
2018-03-18T06:44:07.821Z,86.30
2018-03-18T06:46:34.020Z,86.50
2018-03-18T06:49:00.229Z,85.90
2018-03-18T06:51:26.465Z,85.70
2018-03-18T06:53:52.687Z,85.70
2018-03-18T06:56:18.919Z,85.60
2018-03-18T06:58:45.151Z,85.60
2018-03-18T07:01:12.137Z,85.90
2018-03-18T07:03:38.337Z,85.90
2018-03-18T07:06:05.301Z,85.80
2018-03-18T07:08:32.308Z,85.70
2018-03-18T07:10:58.517Z,85.70
2018-03-18T07:13:24.753Z,85.50
2018-03-18T07:15:50.980Z,84.90
2018-03-18T07:18:17.961Z,84.30
2018-03-18T07:20:44.221Z,84.30
2018-03-18T07:23:10.443Z,84.30
2018-03-18T07:25:36.696Z,84.40
2018-03-18T07:28:02.933Z,84.40
2018-03-18T07:30:29.172Z,84.30
2018-03-18T07:32:55.412Z,84.80
2018-03-18T07:35:21.654Z,84.50
2018-03-18T07:37:47.884Z,85.80
2018-03-18T07:40:14.091Z,88.60
2018-03-18T07:42:40.313Z,87.70
2018-03-18T07:45:06.508Z,85.10
2018-03-18T07:47:32.811Z,83.70
2018-03-18T07:49:59.024Z,82.80
2018-03-18T07:52:25.240Z,82.60
2018-03-18T07:54:51.483Z,85.60
2018-03-18T07:57:17.694Z,85.50
2018-03-18T07:59:44.659Z,83.00
2018-03-18T08:02:10.893Z,83.00
2018-03-18T08:04:37.860Z,80.60
2018-03-18T08:07:04.081Z,80.60
2018-03-18T08:09:31.013Z,81.10
2018-03-18T08:11:57.268Z,81.10
2018-03-18T08:14:23.482Z,81.20
2018-03-18T08:16:49.729Z,81.40
2018-03-18T08:19:15.953Z,82.00
2018-03-18T08:21:42.200Z,82.40
2018-03-18T08:24:08.416Z,82.60
2018-03-18T08:26:34.625Z,82.60
2018-03-18T08:29:01.600Z,82.20
2018-03-18T08:31:27.847Z,82.10
2018-03-18T08:33:54.101Z,82.00
2018-03-18T08:36:21.081Z,82.10
2018-03-18T08:38:47.653Z,82.20
2018-03-18T08:41:13.857Z,81.60
2018-03-18T08:43:40.108Z,81.10
2018-03-18T08:46:06.355Z,80.40
2018-03-18T08:48:32.563Z,80.60
2018-03-18T08:50:58.807Z,80.50
2018-03-18T08:53:25.046Z,80.80
2018-03-18T08:55:51.267Z,80.40
2018-03-18T08:58:17.500Z,80.00
2018-03-18T09:00:43.759Z,79.70
2018-03-18T09:03:10.035Z,79.10
2018-03-18T09:05:37.761Z,78.90
2018-03-18T09:08:04.003Z,79.40
2018-03-18T09:10:30.223Z,78.90
2018-03-18T09:12:57.203Z,77.60
2018-03-18T09:15:23.437Z,77.60
2018-03-18T09:17:49.683Z,76.80
2018-03-18T09:20:15.939Z,76.70
2018-03-18T09:22:42.168Z,75.80
2018-03-18T09:25:08.434Z,76.00
2018-03-18T09:27:34.673Z,76.50
2018-03-18T09:30:00.889Z,76.30
2018-03-18T09:32:27.147Z,75.70
2018-03-18T09:34:53.363Z,74.60
2018-03-18T09:37:19.639Z,73.90
2018-03-18T09:39:45.871Z,74.10
2018-03-18T09:42:12.113Z,74.90
2018-03-18T09:44:38.369Z,75.50
2018-03-18T09:47:04.593Z,75.30
2018-03-18T09:49:30.812Z,75.40
2018-03-18T09:51:57.039Z,75.40
2018-03-18T09:54:24.020Z,75.70
2018-03-18T09:56:50.267Z,75.60
2018-03-18T09:59:16.502Z,75.10
2018-03-18T10:01:42.726Z,75.40
2018-03-18T10:04:08.973Z,75.40
2018-03-18T10:06:35.226Z,75.30
2018-03-18T10:09:01.481Z,75.40
2018-03-18T10:11:27.731Z,74.40
2018-03-18T10:13:53.981Z,74.20
2018-03-18T10:16:20.239Z,74.60
2018-03-18T10:18:46.465Z,74.60
2018-03-18T10:21:12.728Z,74.20
2018-03-18T10:23:39.703Z,73.80
2018-03-18T10:26:05.946Z,73.70
2018-03-18T10:31:00.133Z,73.60
2018-03-18T10:33:26.403Z,73.10
2018-03-18T10:35:53.409Z,72.90
2018-03-18T10:38:19.645Z,72.90
2018-03-18T10:40:45.896Z,73.00
2018-03-18T10:43:12.122Z,73.40
2018-03-18T10:45:38.370Z,73.70
2018-03-18T10:48:04.614Z,73.00
2018-03-18T10:50:30.832Z,72.30
2018-03-18T10:52:57.108Z,71.30
2018-03-18T10:55:23.356Z,71.70
2018-03-18T10:57:49.648Z,72.30
2018-03-18T11:00:19.952Z,72.30
2018-03-18T11:02:47.012Z,72.30
2018-03-18T11:05:14.061Z,72.30
2018-03-18T11:07:40.284Z,72.90
2018-03-18T11:10:06.532Z,72.30
2018-03-18T11:12:32.756Z,72.30
2018-03-18T11:14:59.005Z,72.40
2018-03-18T11:17:25.227Z,72.10
2018-03-18T11:19:51.484Z,71.40
2018-03-18T11:22:17.739Z,70.40
2018-03-18T11:24:43.951Z,70.90
2018-03-18T11:27:10.291Z,71.00
2018-03-18T11:29:36.559Z,71.00
2018-03-18T11:32:02.912Z,71.30
2018-03-18T11:34:29.945Z,70.40
2018-03-18T11:36:56.241Z,70.40
2018-03-18T11:39:22.447Z,70.90
2018-03-18T11:41:48.681Z,71.00
2018-03-18T11:44:14.928Z,71.10
2018-03-18T11:46:41.209Z,70.60
2018-03-18T11:49:07.476Z,70.60
2018-03-18T11:51:33.715Z,70.90
2018-03-18T11:53:59.953Z,70.70
2018-03-18T11:56:26.196Z,70.60
2018-03-18T11:58:52.495Z,68.80
2018-03-18T12:01:18.701Z,69.10
2018-03-18T12:03:44.963Z,69.60
2018-03-18T12:06:12.091Z,70.40
2018-03-18T12:08:59.114Z,70.40
2018-03-18T12:11:25.397Z,69.90
2018-03-18T12:13:52.381Z,68.30
2018-03-18T12:16:18.701Z,68.20
2018-03-18T12:18:45.680Z,68.90
2018-03-18T12:21:11.960Z,68.90
2018-03-18T12:23:38.318Z,69.20
2018-03-18T12:26:04.558Z,69.60
2018-03-18T12:28:30.801Z,69.00
2018-03-18T12:30:57.022Z,69.20
2018-03-18T12:33:23.307Z,69.70
2018-03-18T12:35:50.389Z,70.50
2018-03-18T12:38:16.654Z,70.50
2018-03-18T12:40:52.048Z,69.90
2018-03-18T12:43:27.284Z,69.90
2018-03-18T12:45:53.614Z,69.40
2018-03-18T12:48:19.975Z,68.50
2018-03-18T12:50:46.220Z,68.90
2018-03-18T12:53:12.538Z,69.00
2018-03-18T12:55:38.822Z,68.40
2018-03-18T12:58:05.835Z,67.90
2018-03-18T13:00:32.836Z,69.40
2018-03-18T13:02:59.082Z,68.70
2018-03-18T13:05:26.150Z,69.20
2018-03-18T13:07:53.180Z,69.50
2018-03-18T13:10:19.422Z,69.40
2018-03-18T13:12:45.674Z,69.60
2018-03-18T13:15:11.968Z,69.10
2018-03-18T13:17:38.231Z,67.60
2018-03-18T13:20:04.602Z,68.50
2018-03-18T13:22:30.881Z,69.00
2018-03-18T13:24:57.147Z,69.40
2018-03-18T13:27:23.432Z,70.30
2018-03-18T13:29:50.449Z,71.00
2018-03-18T13:32:16.758Z,71.00
2018-03-18T13:34:43.007Z,72.00
2018-03-18T13:37:09.292Z,71.80
2018-03-18T13:39:35.550Z,71.40
2018-03-18T13:42:01.872Z,71.10
2018-03-18T13:44:28.110Z,72.00
2018-03-18T13:46:55.124Z,71.80
2018-03-18T13:49:21.390Z,71.90
2018-03-18T13:51:47.716Z,72.30
2018-03-18T13:54:13.987Z,73.20
2018-03-18T13:56:40.290Z,73.00
2018-03-18T13:59:06.581Z,73.40
2018-03-18T14:01:32.845Z,73.60
2018-03-18T14:03:59.845Z,74.90
2018-03-18T14:06:27.013Z,74.80
2018-03-18T14:08:53.332Z,74.90
2018-03-18T14:11:19.576Z,74.70
2018-03-18T14:13:45.874Z,74.40
2018-03-18T14:16:12.202Z,74.10
2018-03-18T14:18:38.469Z,73.90
2018-03-18T14:21:04.763Z,74.20
2018-03-18T14:23:31.011Z,75.50
2018-03-18T14:25:57.296Z,75.10
2018-03-18T14:28:24.291Z,74.30
2018-03-18T14:30:50.622Z,74.30
2018-03-18T14:33:16.925Z,74.40
2018-03-18T14:35:43.171Z,74.50
2018-03-18T14:38:09.428Z,74.10
2018-03-18T14:40:36.430Z,74.70
2018-03-18T14:43:02.695Z,74.60
2018-03-18T14:45:29.743Z,75.20
2018-03-18T14:47:56.047Z,75.00
2018-03-18T14:50:22.283Z,74.70
2018-03-18T14:52:48.585Z,74.60
2018-03-18T14:55:15.663Z,74.40
2018-03-18T14:57:41.974Z,74.50
2018-03-18T15:00:08.289Z,74.80
2018-03-18T15:02:34.607Z,74.70
2018-03-18T15:05:01.657Z,75.70
2018-03-18T15:07:28.726Z,75.50
2018-03-18T15:09:55.731Z,75.80
2018-03-18T15:12:22.543Z,75.80
2018-03-18T15:14:49.556Z,76.10
2018-03-18T15:17:15.853Z,76.10
2018-03-18T15:19:42.192Z,76.40
2018-03-18T15:22:08.468Z,76.10
2018-03-18T15:24:34.777Z,76.20
2018-03-18T15:27:02.111Z,76.40
2018-03-18T15:29:28.393Z,76.50
2018-03-18T15:31:54.702Z,76.70
2018-03-18T15:34:21.762Z,76.50
2018-03-18T15:36:48.756Z,76.30
2018-03-18T15:39:15.134Z,76.40
2018-03-18T15:41:41.410Z,76.70
2018-03-18T15:44:07.728Z,77.20
2018-03-18T15:46:34.012Z,77.40
2018-03-18T15:49:00.314Z,77.40
2018-03-18T15:51:26.770Z,77.10
2018-03-18T15:53:53.057Z,77.10
2018-03-18T15:56:19.402Z,77.50
2018-03-18T15:58:45.684Z,78.00
2018-03-18T16:01:12.687Z,78.50
2018-03-18T16:03:38.982Z,78.30
2018-03-18T16:06:05.260Z,78.70
2018-03-18T16:08:32.329Z,78.30
2018-03-18T16:10:58.659Z,78.20
2018-03-18T16:13:25.678Z,79.20
2018-03-18T16:15:52.002Z,79.20
2018-03-18T16:18:18.286Z,79.80
2018-03-18T16:20:44.600Z,79.30
2018-03-18T16:23:10.888Z,79.50
2018-03-18T16:25:37.907Z,78.80
2018-03-18T16:28:04.240Z,78.80
2018-03-18T16:30:42.682Z,78.50
2018-03-18T16:33:08.968Z,78.10
2018-03-18T16:35:35.368Z,78.60
2018-03-18T16:38:01.718Z,79.10
2018-03-18T16:40:28.633Z,79.20
2018-03-18T16:42:54.928Z,78.80
2018-03-18T16:45:21.311Z,79.00
2018-03-18T16:47:48.617Z,79.10
2018-03-18T16:50:15.049Z,79.50
2018-03-18T16:52:41.346Z,79.70
2018-03-18T16:55:07.669Z,79.90
2018-03-18T16:57:34.737Z,79.60
2018-03-18T17:00:02.389Z,79.40
2018-03-18T17:02:29.287Z,79.40
2018-03-18T17:04:58.020Z,79.10
2018-03-18T17:07:24.381Z,79.10
2018-03-18T17:09:51.517Z,79.50
2018-03-18T17:12:17.892Z,79.50
2018-03-18T17:14:44.221Z,79.60
2018-03-18T17:17:10.572Z,79.50
2018-03-18T17:19:37.027Z,79.70
2018-03-18T17:22:03.399Z,80.10
2018-03-18T17:24:30.442Z,80.10
2018-03-18T17:26:57.523Z,80.10
2018-03-18T17:29:23.895Z,80.10
2018-03-18T17:31:50.180Z,80.00
2018-03-18T17:34:16.507Z,79.70
2018-03-18T17:36:42.852Z,79.90
2018-03-18T17:39:10.060Z,80.40
2018-03-18T17:41:36.755Z,80.30
2018-03-18T17:44:03.363Z,80.50
2018-03-18T17:46:42.171Z,79.70
2018-03-18T17:49:20.944Z,79.40
2018-03-18T17:51:59.605Z,79.40
2018-03-18T17:54:38.218Z,79.60
2018-03-18T17:57:05.613Z,82.20
2018-03-18T17:59:31.933Z,88.00
2018-03-18T18:01:58.269Z,87.20
2018-03-18T18:04:24.650Z,82.00
2018-03-18T18:06:50.919Z,78.70
2018-03-18T18:09:18.070Z,77.70
2018-03-18T18:11:45.136Z,75.70
2018-03-18T18:14:12.213Z,74.60
2018-03-18T18:16:38.543Z,74.60
2018-03-18T18:19:05.611Z,74.40
2018-03-18T18:21:32.647Z,75.40
2018-03-18T18:23:58.958Z,75.40
2018-03-18T18:26:25.338Z,76.50
2018-03-18T18:28:53.182Z,78.00
2018-03-18T18:31:19.570Z,77.20
2018-03-18T18:33:46.653Z,78.50
2018-03-18T18:36:12.964Z,78.50
2018-03-18T18:38:39.283Z,78.70
2018-03-18T18:41:05.646Z,79.00
2018-03-18T18:43:31.957Z,79.30
2018-03-18T18:45:59.070Z,80.30
2018-03-18T18:48:25.677Z,79.50
2018-03-18T18:50:52.298Z,79.60
2018-03-18T18:53:18.654Z,79.70
2018-03-18T18:55:45.035Z,79.80
2018-03-18T18:58:11.693Z,80.00
2018-03-18T19:00:38.759Z,80.20
2018-03-18T19:03:05.857Z,80.20
2018-03-18T19:05:32.206Z,80.10
2018-03-18T19:07:58.538Z,79.80
2018-03-18T19:10:24.867Z,80.10
2018-03-18T19:12:51.177Z,80.40
2018-03-18T19:15:18.312Z,80.40
2018-03-18T19:17:44.589Z,80.30
2018-03-18T19:20:11.980Z,80.60
2018-03-18T19:22:38.320Z,80.60
2018-03-18T19:25:04.695Z,80.40
2018-03-18T19:27:31.030Z,80.50
2018-03-18T19:29:57.427Z,80.60
2018-03-18T19:32:24.514Z,81.10
2018-03-18T19:34:50.892Z,81.10
2018-03-18T19:37:17.238Z,81.10
2018-03-18T19:39:43.573Z,81.10
2018-03-18T19:42:10.803Z,81.10
2018-03-18T19:44:37.109Z,81.10
2018-03-18T19:47:03.460Z,81.30
2018-03-18T19:49:31.259Z,81.50
2018-03-18T19:51:57.644Z,81.60
2018-03-18T19:54:24.669Z,81.80
2018-03-18T19:56:51.034Z,81.60
2018-03-18T19:59:18.263Z,81.60
2018-03-18T20:01:45.292Z,81.50
2018-03-18T20:04:12.918Z,81.50
2018-03-18T20:06:39.221Z,81.70
2018-03-18T20:09:07.254Z,82.70
2018-03-18T20:11:33.513Z,81.80
2018-03-18T20:13:59.881Z,81.70
2018-03-18T20:16:26.270Z,81.80
2018-03-18T20:18:52.542Z,82.00
2018-03-18T20:21:19.708Z,82.10
2018-03-18T20:23:46.001Z,82.20
2018-03-18T20:26:12.670Z,82.40
2018-03-18T20:28:39.666Z,82.80
2018-03-18T20:31:06.781Z,82.60
2018-03-18T20:33:34.004Z,83.20
2018-03-18T20:36:00.307Z,82.90
2018-03-18T20:38:26.633Z,82.90
2018-03-18T20:40:52.911Z,82.80
2018-03-18T20:43:20.211Z,82.80
2018-03-18T20:45:47.256Z,83.20
2018-03-18T20:48:14.596Z,83.20
2018-03-18T20:50:40.934Z,83.30
2018-03-18T20:53:07.208Z,83.40
2018-03-18T20:55:33.507Z,83.40
2018-03-18T20:57:59.837Z,83.40
2018-03-18T21:00:26.110Z,83.30
2018-03-18T21:02:53.215Z,83.80
2018-03-18T21:05:20.300Z,83.60
2018-03-18T21:07:46.603Z,83.60
2018-03-18T21:10:12.884Z,83.20
2018-03-18T21:12:39.165Z,84.10
2018-03-18T21:15:05.479Z,83.50
2018-03-18T21:17:31.768Z,83.70
2018-03-18T21:19:58.075Z,83.80
2018-03-18T21:22:24.329Z,84.00
2018-03-18T21:24:50.609Z,84.10
2018-03-18T21:27:17.640Z,84.00
2018-03-18T21:29:43.943Z,84.00
2018-03-18T21:32:10.226Z,84.10
2018-03-18T21:34:37.366Z,84.10
2018-03-18T21:37:03.657Z,84.00
2018-03-18T21:39:30.647Z,83.70
2018-03-18T21:41:56.917Z,83.70
2018-03-18T21:44:23.164Z,83.90
2018-03-18T21:46:49.392Z,84.20
2018-03-18T21:49:15.618Z,84.30
2018-03-18T21:51:41.863Z,84.40
2018-03-18T21:54:08.103Z,84.40
2018-03-18T21:56:34.368Z,83.90
2018-03-18T21:59:00.611Z,83.50
2018-03-18T22:01:26.837Z,83.40
2018-03-18T22:03:53.077Z,83.70
2018-03-18T22:06:19.306Z,83.80
2018-03-18T22:08:45.529Z,83.90
2018-03-18T22:11:11.776Z,83.90
2018-03-18T22:13:38.051Z,83.70
2018-03-18T22:16:04.315Z,84.40
2018-03-18T22:18:30.547Z,83.90
2018-03-18T22:20:56.752Z,83.80
2018-03-18T22:23:22.979Z,83.40
2018-03-18T22:25:49.200Z,83.40
2018-03-18T22:28:15.444Z,83.50
2018-03-18T22:30:41.667Z,83.10
2018-03-18T22:33:08.637Z,83.00
2018-03-18T22:35:35.575Z,83.20
2018-03-18T22:38:02.562Z,83.10
2018-03-18T22:40:28.783Z,83.00
2018-03-18T22:42:55.786Z,83.00
2018-03-18T22:45:22.017Z,82.90
2018-03-18T22:47:48.248Z,82.90
2018-03-18T22:50:14.481Z,82.90
2018-03-18T22:52:40.698Z,83.10
2018-03-18T22:55:07.688Z,82.90
2018-03-18T22:57:33.904Z,82.90
2018-03-18T23:00:00.903Z,82.80
2018-03-18T23:02:27.114Z,82.80
2018-03-18T23:04:53.349Z,82.40
2018-03-18T23:07:19.632Z,82.30
2018-03-18T23:09:45.848Z,82.40
2018-03-18T23:12:12.108Z,82.30
2018-03-18T23:14:38.346Z,82.40
2018-03-18T23:17:04.584Z,82.10
2018-03-18T23:19:30.825Z,81.80
2018-03-18T23:21:57.046Z,81.50
2018-03-18T23:24:23.258Z,81.40
2018-03-18T23:26:50.198Z,81.60
2018-03-18T23:29:16.432Z,81.60
2018-03-18T23:31:42.644Z,81.60
2018-03-18T23:34:08.884Z,81.70
2018-03-18T23:36:35.849Z,82.50
2018-03-18T23:39:02.420Z,82.00
2018-03-18T23:41:28.666Z,81.80
2018-03-18T23:43:54.878Z,81.80
2018-03-18T23:46:21.113Z,82.10
2018-03-18T23:48:47.328Z,82.10
2018-03-18T23:51:13.557Z,81.80
2018-03-18T23:53:39.777Z,82.40
2018-03-18T23:56:07.023Z,81.60
2018-03-18T23:58:33.272Z,81.50
